PSERI SBCG-SBSI
Flight info
| Callsign | PSERI |
|---|---|
| Flight time | 1h 13m |
| Altitude | 45000 |
| Route | KOXAL DCT BUXEB |
| Aircraft | C700/M-SBDGHM1RWXY/LB2 |
Departure
| Time | 2026-05-06 18:40 |
|---|---|
| Airport | Campo Grande Airport (SBCG) |
Arrival
| Time | 2026-05-06 19:53 |
|---|---|
| Airport | Presidente João Batista Figueiredo Airport (SBSI) |
| Time | Latitude | Longitude | Altitude | Speed | Heading |
|---|---|---|---|---|---|
| 2026-05-06 18:27 | -20.45837 | -54.67139 | 1833 ft | 0 kts | 147° |
| 2026-05-06 18:36 | -20.45849 | -54.67139 | 1833 ft | 5 kts | 175° |
| 2026-05-06 18:36 | -20.45924 | -54.67134 | 1833 ft | 16 kts | 179° |
| 2026-05-06 18:36 | -20.46074 | -54.67124 | 1833 ft | 27 kts | 174° |
| 2026-05-06 18:36 | -20.46280 | -54.67098 | 1833 ft | 31 kts | 173° |
| 2026-05-06 18:37 | -20.46484 | -54.67157 | 1833 ft | 33 kts | 223° |
| 2026-05-06 18:37 | -20.46600 | -54.67267 | 1833 ft | 34 kts | 221° |
| 2026-05-06 18:37 | -20.46838 | -54.67495 | 1833 ft | 33 kts | 221° |
| 2026-05-06 18:37 | -20.46924 | -54.67480 | 1833 ft | 16 kts | 133° |
| 2026-05-06 18:38 | -20.46981 | -54.67386 | 1832 ft | 12 kts | 77° |
| 2026-05-06 18:38 | -20.46967 | -54.67366 | 1833 ft | 0 kts | 44° |
| 2026-05-06 18:39 | -20.46803 | -54.67208 | 1834 ft | 79 kts | 41° |
| 2026-05-06 18:39 | -20.46162 | -54.66589 | 1880 ft | 164 kts | 43° |
| 2026-05-06 18:40 | -20.44318 | -54.64746 | 4236 ft | 206 kts | 36° |
| 2026-05-06 18:40 | -20.43104 | -54.63752 | 5471 ft | 233 kts | 33° |
| 2026-05-06 18:40 | -20.41554 | -54.63078 | 6736 ft | 257 kts | 15° |
| 2026-05-06 18:40 | -20.39751 | -54.62911 | 8368 ft | 264 kts | 357° |
| 2026-05-06 18:41 | -20.37923 | -54.63372 | 9943 ft | 278 kts | 338° |
| 2026-05-06 18:41 | -20.36275 | -54.64510 | 11385 ft | 290 kts | 320° |
| 2026-05-06 18:41 | -20.34878 | -54.66116 | 12802 ft | 301 kts | 314° |
| 2026-05-06 18:41 | -20.33453 | -54.67807 | 14141 ft | 312 kts | 315° |
| 2026-05-06 18:42 | -20.31974 | -54.69526 | 15463 ft | 317 kts | 315° |
| 2026-05-06 18:42 | -20.30469 | -54.71275 | 16809 ft | 324 kts | 313° |
| 2026-05-06 18:42 | -20.28937 | -54.73067 | 18164 ft | 333 kts | 312° |
| 2026-05-06 18:42 | -20.27324 | -54.74963 | 18827 ft | 359 kts | 310° |
| 2026-05-06 18:43 | -20.25811 | -54.77125 | 19899 ft | 365 kts | 305° |
| 2026-05-06 18:43 | -20.24293 | -54.79317 | 21079 ft | 371 kts | 305° |
| 2026-05-06 18:43 | -20.22718 | -54.81529 | 22171 ft | 378 kts | 306° |
| 2026-05-06 18:43 | -20.21053 | -54.83735 | 23237 ft | 387 kts | 311° |
| 2026-05-06 18:44 | -20.18985 | -54.85615 | 24155 ft | 396 kts | 322° |
| 2026-05-06 18:44 | -20.16562 | -54.87071 | 25028 ft | 404 kts | 334° |
| 2026-05-06 18:44 | -20.13878 | -54.88053 | 25885 ft | 412 kts | 341° |
| 2026-05-06 18:44 | -20.11117 | -54.88942 | 26699 ft | 418 kts | 341° |
| 2026-05-06 18:45 | -20.08351 | -54.89842 | 27490 ft | 424 kts | 340° |
| 2026-05-06 18:45 | -20.05510 | -54.90767 | 28288 ft | 430 kts | 340° |
| 2026-05-06 18:45 | -20.02628 | -54.91703 | 29064 ft | 436 kts | 340° |
| 2026-05-06 18:45 | -20.00656 | -54.92343 | 29569 ft | 440 kts | 340° |
| 2026-05-06 18:46 | -19.96741 | -54.93615 | 30459 ft | 448 kts | 340° |
| 2026-05-06 18:46 | -19.93747 | -54.94587 | 31092 ft | 452 kts | 340° |
| 2026-05-06 18:46 | -19.90722 | -54.95568 | 31719 ft | 457 kts | 340° |
| 2026-05-06 18:46 | -19.87663 | -54.96553 | 32315 ft | 462 kts | 340° |
| 2026-05-06 18:47 | -19.84472 | -54.97201 | 32901 ft | 472 kts | 350° |
| 2026-05-06 18:47 | -19.82246 | -54.97410 | 33289 ft | 476 kts | 352° |
| 2026-05-06 18:47 | -19.78932 | -54.97716 | 33845 ft | 481 kts | 351° |
| 2026-05-06 18:47 | -19.75585 | -54.98038 | 34345 ft | 485 kts | 351° |
| 2026-05-06 18:48 | -19.72265 | -54.98355 | 34874 ft | 487 kts | 351° |
| 2026-05-06 18:48 | -19.68873 | -54.98672 | 35390 ft | 490 kts | 351° |
| 2026-05-06 18:48 | -19.65471 | -54.98991 | 35895 ft | 493 kts | 351° |
| 2026-05-06 18:48 | -19.62046 | -54.99317 | 36392 ft | 495 kts | 351° |
| 2026-05-06 18:49 | -19.58605 | -54.99642 | 36881 ft | 498 kts | 351° |
| 2026-05-06 18:49 | -19.55142 | -54.99968 | 37358 ft | 501 kts | 351° |
| 2026-05-06 18:49 | -19.51660 | -55.00295 | 37817 ft | 504 kts | 351° |
| 2026-05-06 18:49 | -19.48155 | -55.00626 | 38267 ft | 507 kts | 351° |
| 2026-05-06 18:50 | -19.44668 | -55.00953 | 39070 ft | 496 kts | 351° |
| 2026-05-06 18:50 | -19.41250 | -55.01271 | 39561 ft | 492 kts | 351° |
| 2026-05-06 18:50 | -19.37839 | -55.01596 | 39856 ft | 492 kts | 350° |
| 2026-05-06 18:50 | -19.34425 | -55.01920 | 40159 ft | 492 kts | 350° |
| 2026-05-06 18:51 | -19.31009 | -55.02173 | 40456 ft | 492 kts | 352° |
| 2026-05-06 18:51 | -19.27597 | -55.02397 | 40733 ft | 491 kts | 352° |
| 2026-05-06 18:51 | -19.24191 | -55.02644 | 40990 ft | 490 kts | 351° |
| 2026-05-06 18:51 | -19.20792 | -55.02890 | 41242 ft | 489 kts | 352° |
| 2026-05-06 18:52 | -19.17393 | -55.03118 | 41479 ft | 489 kts | 352° |
| 2026-05-06 18:52 | -19.13999 | -55.03346 | 41692 ft | 488 kts | 352° |
| 2026-05-06 18:52 | -19.10614 | -55.03583 | 41904 ft | 487 kts | 351° |
| 2026-05-06 18:52 | -19.07276 | -55.03817 | 42094 ft | 487 kts | 351° |
| 2026-05-06 18:53 | -19.03895 | -55.04049 | 42288 ft | 487 kts | 351° |
| 2026-05-06 18:53 | -19.00520 | -55.04278 | 42475 ft | 486 kts | 351° |
| 2026-05-06 18:53 | -18.97153 | -55.04511 | 42649 ft | 486 kts | 351° |
| 2026-05-06 18:53 | -18.93783 | -55.04745 | 42823 ft | 485 kts | 351° |
| 2026-05-06 18:54 | -18.90410 | -55.04977 | 42977 ft | 485 kts | 351° |
| 2026-05-06 18:54 | -18.87050 | -55.05207 | 43135 ft | 484 kts | 351° |
| 2026-05-06 18:54 | -18.83688 | -55.05438 | 43277 ft | 484 kts | 351° |
| 2026-05-06 18:54 | -18.80328 | -55.05670 | 43417 ft | 483 kts | 351° |
| 2026-05-06 18:55 | -18.76973 | -55.05900 | 43540 ft | 483 kts | 351° |
| 2026-05-06 18:55 | -18.73616 | -55.06130 | 43664 ft | 483 kts | 351° |
| 2026-05-06 18:55 | -18.70264 | -55.06361 | 43802 ft | 482 kts | 351° |
| 2026-05-06 18:56 | -18.63567 | -55.06820 | 44009 ft | 482 kts | 351° |
| 2026-05-06 18:56 | -18.60222 | -55.07050 | 44116 ft | 482 kts | 351° |
| 2026-05-06 18:56 | -18.56880 | -55.07279 | 44212 ft | 481 kts | 351° |
| 2026-05-06 18:57 | -18.50195 | -55.07737 | 44401 ft | 481 kts | 351° |
| 2026-05-06 18:57 | -18.43522 | -55.08193 | 44553 ft | 481 kts | 351° |
| 2026-05-06 18:58 | -18.36850 | -55.08650 | 44698 ft | 480 kts | 351° |
| 2026-05-06 18:58 | -18.30187 | -55.09105 | 44812 ft | 480 kts | 351° |
| 2026-05-06 18:59 | -18.23525 | -55.09560 | 44914 ft | 480 kts | 351° |
| 2026-05-06 18:59 | -18.16861 | -55.10015 | 44946 ft | 480 kts | 351° |
| 2026-05-06 19:00 | -18.10191 | -55.10469 | 44944 ft | 480 kts | 351° |
| 2026-05-06 19:00 | -18.03525 | -55.10924 | 44948 ft | 480 kts | 351° |
| 2026-05-06 19:01 | -17.96856 | -55.11378 | 44948 ft | 480 kts | 351° |
| 2026-05-06 19:01 | -17.90242 | -55.11829 | 44944 ft | 480 kts | 351° |
| 2026-05-06 19:02 | -17.83585 | -55.12280 | 44953 ft | 479 kts | 351° |
| 2026-05-06 19:02 | -17.76929 | -55.12733 | 44947 ft | 478 kts | 351° |
| 2026-05-06 19:03 | -17.70290 | -55.13183 | 44952 ft | 478 kts | 351° |
| 2026-05-06 19:03 | -17.63664 | -55.13634 | 44950 ft | 477 kts | 351° |
| 2026-05-06 19:04 | -17.57037 | -55.14082 | 44946 ft | 477 kts | 351° |
| 2026-05-06 19:04 | -17.50409 | -55.14531 | 44947 ft | 477 kts | 351° |
| 2026-05-06 19:05 | -17.43778 | -55.14981 | 44943 ft | 477 kts | 351° |
| 2026-05-06 19:05 | -17.37160 | -55.15428 | 44951 ft | 477 kts | 351° |
| 2026-05-06 19:06 | -17.30529 | -55.15876 | 44948 ft | 477 kts | 351° |
| 2026-05-06 19:06 | -17.23909 | -55.16323 | 44948 ft | 477 kts | 351° |
| 2026-05-06 19:07 | -17.17291 | -55.16769 | 44944 ft | 477 kts | 352° |
| 2026-05-06 19:07 | -17.10664 | -55.17217 | 44942 ft | 477 kts | 352° |
| 2026-05-06 19:08 | -17.04037 | -55.17663 | 44944 ft | 477 kts | 352° |
| 2026-05-06 19:08 | -16.97501 | -55.18104 | 44942 ft | 477 kts | 352° |
| 2026-05-06 19:09 | -16.90876 | -55.18549 | 44942 ft | 477 kts | 352° |
| 2026-05-06 19:09 | -16.84248 | -55.18995 | 44944 ft | 477 kts | 352° |
| 2026-05-06 19:10 | -16.77630 | -55.19440 | 44942 ft | 477 kts | 352° |
| 2026-05-06 19:10 | -16.71005 | -55.19884 | 44941 ft | 477 kts | 352° |
| 2026-05-06 19:11 | -16.64380 | -55.20330 | 44946 ft | 477 kts | 352° |
| 2026-05-06 19:11 | -16.57750 | -55.20774 | 44949 ft | 477 kts | 352° |
| 2026-05-06 19:12 | -16.51127 | -55.21218 | 44944 ft | 477 kts | 352° |
| 2026-05-06 19:12 | -16.44514 | -55.21660 | 44954 ft | 476 kts | 352° |
| 2026-05-06 19:13 | -16.37938 | -55.22101 | 44953 ft | 476 kts | 352° |
| 2026-05-06 19:13 | -16.31332 | -55.22542 | 44955 ft | 476 kts | 352° |
| 2026-05-06 19:14 | -16.24717 | -55.22985 | 44955 ft | 476 kts | 352° |
| 2026-05-06 19:14 | -16.18112 | -55.23426 | 44959 ft | 476 kts | 352° |
| 2026-05-06 19:15 | -16.11508 | -55.23866 | 44962 ft | 475 kts | 352° |
| 2026-05-06 19:15 | -16.04903 | -55.24307 | 44966 ft | 476 kts | 352° |
| 2026-05-06 19:16 | -15.98300 | -55.24748 | 44964 ft | 475 kts | 352° |
| 2026-05-06 19:16 | -15.91695 | -55.25187 | 44967 ft | 475 kts | 352° |
| 2026-05-06 19:17 | -15.85096 | -55.25627 | 44967 ft | 475 kts | 352° |
| 2026-05-06 19:17 | -15.78496 | -55.26065 | 44966 ft | 475 kts | 352° |
| 2026-05-06 19:18 | -15.71911 | -55.26504 | 44972 ft | 474 kts | 352° |
| 2026-05-06 19:18 | -15.65320 | -55.26942 | 44977 ft | 474 kts | 352° |
| 2026-05-06 19:19 | -15.58749 | -55.27378 | 44976 ft | 474 kts | 352° |
| 2026-05-06 19:19 | -15.52172 | -55.27814 | 44970 ft | 474 kts | 352° |
| 2026-05-06 19:20 | -15.45602 | -55.28250 | 44970 ft | 473 kts | 352° |
| 2026-05-06 19:20 | -15.39035 | -55.28685 | 44968 ft | 473 kts | 352° |
| 2026-05-06 19:21 | -15.32468 | -55.29120 | 44970 ft | 473 kts | 352° |
| 2026-05-06 19:21 | -15.25944 | -55.29552 | 44966 ft | 473 kts | 352° |
| 2026-05-06 19:22 | -15.19384 | -55.29985 | 44962 ft | 472 kts | 352° |
| 2026-05-06 19:22 | -15.12828 | -55.30419 | 44961 ft | 472 kts | 352° |
| 2026-05-06 19:23 | -15.06271 | -55.30852 | 44958 ft | 472 kts | 352° |
| 2026-05-06 19:23 | -14.99715 | -55.31285 | 44949 ft | 472 kts | 352° |
| 2026-05-06 19:24 | -14.93159 | -55.31718 | 44951 ft | 472 kts | 352° |
| 2026-05-06 19:24 | -14.86602 | -55.32150 | 44950 ft | 472 kts | 353° |
| 2026-05-06 19:25 | -14.80041 | -55.32583 | 44947 ft | 472 kts | 353° |
| 2026-05-06 19:25 | -14.73484 | -55.33014 | 44948 ft | 472 kts | 353° |
| 2026-05-06 19:26 | -14.66921 | -55.33446 | 44946 ft | 472 kts | 353° |
| 2026-05-06 19:26 | -14.60362 | -55.33877 | 44947 ft | 472 kts | 353° |
| 2026-05-06 19:27 | -14.53800 | -55.34310 | 44947 ft | 473 kts | 353° |
| 2026-05-06 19:27 | -14.47241 | -55.34739 | 44950 ft | 472 kts | 353° |
| 2026-05-06 19:28 | -14.40683 | -55.35171 | 44948 ft | 472 kts | 353° |
| 2026-05-06 19:28 | -14.34130 | -55.35600 | 44946 ft | 472 kts | 353° |
| 2026-05-06 19:29 | -14.27575 | -55.36031 | 44946 ft | 472 kts | 353° |
| 2026-05-06 19:29 | -14.21060 | -55.36457 | 44945 ft | 472 kts | 353° |
| 2026-05-06 19:30 | -14.14499 | -55.36888 | 44945 ft | 473 kts | 353° |
| 2026-05-06 19:30 | -14.07934 | -55.37317 | 44945 ft | 473 kts | 353° |
| 2026-05-06 19:31 | -14.01371 | -55.37747 | 44942 ft | 473 kts | 353° |
| 2026-05-06 19:31 | -13.91532 | -55.38390 | 44943 ft | 472 kts | 353° |
| 2026-05-06 19:32 | -13.84968 | -55.38819 | 44940 ft | 473 kts | 353° |
| 2026-05-06 19:32 | -13.78405 | -55.39248 | 44944 ft | 473 kts | 353° |
| 2026-05-06 19:33 | -13.71849 | -55.39754 | 44944 ft | 472 kts | 352° |
| 2026-05-06 19:33 | -13.65305 | -55.40333 | 44940 ft | 472 kts | 353° |
| 2026-05-06 19:34 | -13.59863 | -55.40758 | 44941 ft | 472 kts | 352° |
| 2026-05-06 19:34 | -13.52210 | -55.41413 | 44940 ft | 472 kts | 352° |
| 2026-05-06 19:35 | -13.46765 | -55.41854 | 44940 ft | 472 kts | 352° |
| 2026-05-06 19:35 | -13.40216 | -55.42405 | 44802 ft | 474 kts | 352° |
| 2026-05-06 19:36 | -13.36949 | -55.42673 | 43861 ft | 456 kts | 352° |
| 2026-05-06 19:36 | -13.33880 | -55.42918 | 42815 ft | 431 kts | 352° |
| 2026-05-06 19:36 | -13.30950 | -55.43163 | 41780 ft | 417 kts | 352° |
| 2026-05-06 19:36 | -13.28086 | -55.43409 | 40796 ft | 408 kts | 352° |
| 2026-05-06 19:37 | -13.25278 | -55.43642 | 39855 ft | 402 kts | 352° |
| 2026-05-06 19:37 | -13.22511 | -55.43867 | 38963 ft | 397 kts | 352° |
| 2026-05-06 19:37 | -13.19698 | -55.44105 | 38056 ft | 422 kts | 352° |
| 2026-05-06 19:37 | -13.16654 | -55.44367 | 37171 ft | 452 kts | 353° |
| 2026-05-06 19:38 | -13.13479 | -55.44622 | 36335 ft | 461 kts | 353° |
| 2026-05-06 19:38 | -13.10274 | -55.44878 | 35525 ft | 463 kts | 353° |
| 2026-05-06 19:38 | -13.07074 | -55.45142 | 34735 ft | 459 kts | 353° |
| 2026-05-06 19:38 | -13.03906 | -55.45412 | 33961 ft | 454 kts | 354° |
| 2026-05-06 19:39 | -13.00772 | -55.45675 | 33081 ft | 450 kts | 354° |
| 2026-05-06 19:39 | -12.97669 | -55.45929 | 32228 ft | 445 kts | 355° |
| 2026-05-06 19:39 | -12.94599 | -55.46179 | 31397 ft | 440 kts | 355° |
| 2026-05-06 19:39 | -12.91561 | -55.46427 | 30587 ft | 435 kts | 355° |
| 2026-05-06 19:40 | -12.88600 | -55.46683 | 29739 ft | 422 kts | 356° |
| 2026-05-06 19:40 | -12.85679 | -55.46923 | 28798 ft | 420 kts | 356° |
| 2026-05-06 19:40 | -12.82769 | -55.47153 | 27891 ft | 418 kts | 356° |
| 2026-05-06 19:40 | -12.79880 | -55.47392 | 27013 ft | 415 kts | 356° |
| 2026-05-06 19:41 | -12.77014 | -55.47633 | 26169 ft | 412 kts | 356° |
| 2026-05-06 19:41 | -12.74168 | -55.47869 | 25338 ft | 409 kts | 357° |
| 2026-05-06 19:41 | -12.71346 | -55.48100 | 24537 ft | 405 kts | 357° |
| 2026-05-06 19:41 | -12.68548 | -55.48330 | 23755 ft | 402 kts | 357° |
| 2026-05-06 19:42 | -12.65772 | -55.48559 | 22881 ft | 399 kts | 357° |
| 2026-05-06 19:42 | -12.63020 | -55.48787 | 21982 ft | 395 kts | 358° |
| 2026-05-06 19:42 | -12.60293 | -55.49011 | 21108 ft | 391 kts | 358° |
| 2026-05-06 19:42 | -12.57595 | -55.49234 | 20263 ft | 387 kts | 358° |
| 2026-05-06 19:43 | -12.54925 | -55.49454 | 19433 ft | 383 kts | 358° |
| 2026-05-06 19:43 | -12.52280 | -55.49671 | 18632 ft | 379 kts | 358° |
| 2026-05-06 19:43 | -12.49664 | -55.49889 | 17783 ft | 375 kts | 358° |
| 2026-05-06 19:43 | -12.47228 | -55.50091 | 16897 ft | 340 kts | 358° |
| 2026-05-06 19:44 | -12.44923 | -55.50279 | 16031 ft | 340 kts | 358° |
| 2026-05-06 19:44 | -12.42548 | -55.50474 | 15184 ft | 342 kts | 357° |
| 2026-05-06 19:44 | -12.40174 | -55.50667 | 14364 ft | 342 kts | 357° |
| 2026-05-06 19:44 | -12.37805 | -55.50857 | 13535 ft | 341 kts | 357° |
| 2026-05-06 19:45 | -12.35499 | -55.51050 | 12652 ft | 317 kts | 357° |
| 2026-05-06 19:45 | -12.33339 | -55.51241 | 11779 ft | 303 kts | 357° |
| 2026-05-06 19:45 | -12.31292 | -55.51404 | 10931 ft | 289 kts | 357° |
| 2026-05-06 19:45 | -12.29312 | -55.51564 | 10099 ft | 283 kts | 357° |
| 2026-05-06 19:46 | -12.27365 | -55.51719 | 9261 ft | 279 kts | 357° |
| 2026-05-06 19:46 | -12.25483 | -55.51877 | 8959 ft | 270 kts | 357° |
| 2026-05-06 19:46 | -12.23558 | -55.52042 | 8619 ft | 283 kts | 357° |
| 2026-05-06 19:46 | -12.21603 | -55.52197 | 8240 ft | 280 kts | 358° |
| 2026-05-06 19:47 | -12.19674 | -55.52349 | 7881 ft | 277 kts | 357° |
| 2026-05-06 19:47 | -12.17756 | -55.52510 | 7510 ft | 275 kts | 357° |
| 2026-05-06 19:47 | -12.15858 | -55.52675 | 7151 ft | 273 kts | 357° |
| 2026-05-06 19:47 | -12.13975 | -55.52825 | 6785 ft | 271 kts | 358° |
| 2026-05-06 19:48 | -12.12097 | -55.52974 | 6431 ft | 270 kts | 357° |
| 2026-05-06 19:48 | -12.10275 | -55.53409 | 6061 ft | 272 kts | 339° |
| 2026-05-06 19:48 | -12.08686 | -55.54440 | 5703 ft | 272 kts | 321° |
| 2026-05-06 19:48 | -12.07481 | -55.55932 | 5340 ft | 274 kts | 302° |
| 2026-05-06 19:49 | -12.06753 | -55.57733 | 4986 ft | 275 kts | 290° |
| 2026-05-06 19:49 | -12.05920 | -55.59445 | 4859 ft | 269 kts | 306° |
| 2026-05-06 19:49 | -12.04577 | -55.60779 | 4316 ft | 266 kts | 326° |
| 2026-05-06 19:49 | -12.02953 | -55.61584 | 3858 ft | 252 kts | 345° |
| 2026-05-06 19:50 | -12.01304 | -55.61868 | 3382 ft | 225 kts | 1° |
| 2026-05-06 19:50 | -11.99875 | -55.61704 | 2773 ft | 192 kts | 17° |
| 2026-05-06 19:50 | -11.98646 | -55.61353 | 2198 ft | 177 kts | 19° |
| 2026-05-06 19:50 | -11.97564 | -55.61088 | 2201 ft | 145 kts | 18° |
| 2026-05-06 19:51 | -11.96564 | -55.60805 | 2206 ft | 145 kts | 19° |
| 2026-05-06 19:51 | -11.95571 | -55.60540 | 2223 ft | 153 kts | 18° |
| 2026-05-06 19:51 | -11.94613 | -55.60281 | 2228 ft | 132 kts | 21° |
| 2026-05-06 19:51 | -11.93753 | -55.60051 | 2100 ft | 126 kts | 18° |
| 2026-05-06 19:52 | -11.92886 | -55.59821 | 1965 ft | 129 kts | 19° |
| 2026-05-06 19:52 | -11.92045 | -55.59584 | 1814 ft | 122 kts | 19° |
| 2026-05-06 19:52 | -11.91201 | -55.59371 | 1678 ft | 126 kts | 17° |
| 2026-05-06 19:52 | -11.90412 | -55.59148 | 1530 ft | 114 kts | 17° |
| 2026-05-06 19:53 | -11.89570 | -55.58919 | 1376 ft | 124 kts | 19° |
| 2026-05-06 19:53 | -11.88855 | -55.58728 | 1284 ft | 61 kts | 14° |
| 2026-05-06 19:53 | -11.88579 | -55.58650 | 1285 ft | 38 kts | 17° |
| 2026-05-06 19:53 | -11.88331 | -55.58588 | 1284 ft | 35 kts | 15° |
| 2026-05-06 19:54 | -11.88193 | -55.58550 | 1282 ft | 20 kts | 15° |
| 2026-05-06 19:54 | -11.88049 | -55.58512 | 1282 ft | 23 kts | 14° |
| 2026-05-06 19:54 | -11.87879 | -55.58467 | 1278 ft | 27 kts | 15° |
| 2026-05-06 19:54 | -11.87832 | -55.58404 | 1279 ft | 11 kts | 104° |
| 2026-05-06 19:55 | -11.87851 | -55.58325 | 1280 ft | 12 kts | 103° |
| 2026-05-06 19:55 | -11.87917 | -55.58293 | 1280 ft | 13 kts | 187° |
| 2026-05-06 19:55 | -11.87978 | -55.58294 | 1281 ft | 5 kts | 119° |
| 2026-05-06 19:55 | -11.87980 | -55.58286 | 1282 ft | 0 kts | 103° |